sensor_id;sensor_type;location;lat;lon;timestamp;temperature;humidity
41557;DHT22;27720;51.992;5.890;2024-01-30T10:44:51;8.60;99.90
41557;DHT22;27720;51.992;5.890;2024-01-30T10:47:27;8.90;99.90
41557;DHT22;27720;51.992;5.890;2024-01-30T10:49:54;9.60;99.90
41557;DHT22;27720;51.992;5.890;2024-01-30T10:52:21;10.10;99.90
41557;DHT22;27720;51.992;5.890;2024-01-30T10:54:49;10.60;99.90
41557;DHT22;27720;51.992;5.890;2024-01-30T10:57:16;11.00;99.90
41557;DHT22;27720;51.992;5.890;2024-01-30T10:59:43;11.20;99.90
41557;DHT22;27720;51.992;5.890;2024-01-30T11:02:10;11.50;99.90
41557;DHT22;27720;51.992;5.890;2024-01-30T11:04:41;11.60;99.90
41557;DHT22;27720;51.992;5.890;2024-01-30T11:07:17;11.80;99.90
41557;DHT22;27720;51.992;5.890;2024-01-30T11:10:03;11.90;99.90
41557;DHT22;27720;51.992;5.890;2024-01-30T11:12:30;12.10;99.90
41557;DHT22;27720;51.992;5.890;2024-01-30T11:15:08;12.20;99.90
41557;DHT22;27720;51.992;5.890;2024-01-30T11:22:42;12.40;99.90
41557;DHT22;27720;51.992;5.890;2024-01-30T11:25:16;12.60;99.90
41557;DHT22;27720;51.992;5.890;2024-01-30T11:27:43;12.70;99.90
41557;DHT22;27720;51.992;5.890;2024-01-30T11:30:10;12.70;99.90
41557;DHT22;27720;51.992;5.890;2024-01-30T11:32:36;12.70;99.90
41557;DHT22;27720;51.992;5.890;2024-01-30T11:35:06;12.80;99.90
41557;DHT22;27720;51.992;5.890;2024-01-30T11:37:32;12.80;99.90
41557;DHT22;27720;51.992;5.890;2024-01-30T11:40:02;12.70;99.90
41557;DHT22;27720;51.992;5.890;2024-01-30T11:42:30;12.80;99.90
41557;DHT22;27720;51.992;5.890;2024-01-30T11:44:56;12.80;99.90
41557;DHT22;27720;51.992;5.890;2024-01-30T11:47:22;12.80;99.90
41557;DHT22;27720;51.992;5.890;2024-01-30T11:49:48;12.90;99.90
41557;DHT22;27720;51.992;5.890;2024-01-30T11:52:14;12.90;99.90
41557;DHT22;27720;51.992;5.890;2024-01-30T11:54:40;13.00;99.90
41557;DHT22;27720;51.992;5.890;2024-01-30T11:57:06;13.00;99.90
41557;DHT22;27720;51.992;5.890;2024-01-30T11:59:32;13.10;99.90
41557;DHT22;27720;51.992;5.890;2024-01-30T12:01:57;13.20;99.90
41557;DHT22;27720;51.992;5.890;2024-01-30T12:04:23;13.30;99.90
41557;DHT22;27720;51.992;5.890;2024-01-30T12:06:52;13.30;99.90
41557;DHT22;27720;51.992;5.890;2024-01-30T12:09:18;13.30;99.90
41557;DHT22;27720;51.992;5.890;2024-01-30T12:11:45;13.30;99.90
41557;DHT22;27720;51.992;5.890;2024-01-30T12:14:12;13.30;99.90
41557;DHT22;27720;51.992;5.890;2024-01-30T12:16:38;13.30;99.90
41557;DHT22;27720;51.992;5.890;2024-01-30T12:19:03;13.30;99.90
41557;DHT22;27720;51.992;5.890;2024-01-30T12:21:30;13.30;99.90
41557;DHT22;27720;51.992;5.890;2024-01-30T12:23:57;13.30;99.90
41557;DHT22;27720;51.992;5.890;2024-01-30T12:26:24;13.40;99.90
41557;DHT22;27720;51.992;5.890;2024-01-30T12:28:54;13.40;99.90
41557;DHT22;27720;51.992;5.890;2024-01-30T12:31:32;13.50;99.90
41557;DHT22;27720;51.992;5.890;2024-01-30T12:34:00;13.50;99.90
41557;DHT22;27720;51.992;5.890;2024-01-30T12:36:26;13.60;99.90
41557;DHT22;27720;51.992;5.890;2024-01-30T12:38:51;13.60;99.90
41557;DHT22;27720;51.992;5.890;2024-01-30T12:41:17;13.60;99.90
41557;DHT22;27720;51.992;5.890;2024-01-30T12:43:43;13.50;99.90
41557;DHT22;27720;51.992;5.890;2024-01-30T12:46:10;13.40;99.90
41557;DHT22;27720;51.992;5.890;2024-01-30T12:48:35;13.30;99.90
41557;DHT22;27720;51.992;5.890;2024-01-30T12:51:01;13.30;99.90
41557;DHT22;27720;51.992;5.890;2024-01-30T12:53:27;13.20;99.90
41557;DHT22;27720;51.992;5.890;2024-01-30T12:55:53;13.20;99.90
41557;DHT22;27720;51.992;5.890;2024-01-30T12:58:20;13.10;99.90
41557;DHT22;27720;51.992;5.890;2024-01-30T13:00:45;13.00;99.90
41557;DHT22;27720;51.992;5.890;2024-01-30T13:03:12;12.90;99.90
41557;DHT22;27720;51.992;5.890;2024-01-30T13:05:38;12.90;99.90
41557;DHT22;27720;51.992;5.890;2024-01-30T13:08:04;12.90;99.90
41557;DHT22;27720;51.992;5.890;2024-01-30T13:10:30;13.00;99.90
41557;DHT22;27720;51.992;5.890;2024-01-30T13:12:56;13.00;99.90
41557;DHT22;27720;51.992;5.890;2024-01-30T13:15:21;13.00;99.90
41557;DHT22;27720;51.992;5.890;2024-01-30T13:17:48;13.00;99.90
41557;DHT22;27720;51.992;5.890;2024-01-30T13:20:15;13.10;99.90
41557;DHT22;27720;51.992;5.890;2024-01-30T13:22:44;13.10;99.90
41557;DHT22;27720;51.992;5.890;2024-01-30T13:25:10;13.10;99.90
41557;DHT22;27720;51.992;5.890;2024-01-30T13:27:39;13.10;99.90
41557;DHT22;27720;51.992;5.890;2024-01-30T13:30:07;13.10;99.90
41557;DHT22;27720;51.992;5.890;2024-01-30T13:32:33;13.10;99.90
41557;DHT22;27720;51.992;5.890;2024-01-30T13:34:59;13.00;99.90
41557;DHT22;27720;51.992;5.890;2024-01-30T13:37:24;13.00;99.90
41557;DHT22;27720;51.992;5.890;2024-01-30T13:39:50;13.00;99.90
41557;DHT22;27720;51.992;5.890;2024-01-30T13:42:16;12.90;99.90
41557;DHT22;27720;51.992;5.890;2024-01-30T13:44:41;12.80;99.90
41557;DHT22;27720;51.992;5.890;2024-01-30T13:47:09;12.80;99.90
41557;DHT22;27720;51.992;5.890;2024-01-30T13:49:35;12.80;99.90
41557;DHT22;27720;51.992;5.890;2024-01-30T13:52:01;12.70;99.90
41557;DHT22;27720;51.992;5.890;2024-01-30T13:54:26;12.60;99.90
41557;DHT22;27720;51.992;5.890;2024-01-30T13:56:52;12.60;99.90
41557;DHT22;27720;51.992;5.890;2024-01-30T13:59:18;12.50;99.90
41557;DHT22;27720;51.992;5.890;2024-01-30T14:01:52;12.40;99.90
41557;DHT22;27720;51.992;5.890;2024-01-30T14:04:17;12.40;99.90
41557;DHT22;27720;51.992;5.890;2024-01-30T14:06:43;12.30;99.90
41557;DHT22;27720;51.992;5.890;2024-01-30T14:09:09;12.30;99.90
41557;DHT22;27720;51.992;5.890;2024-01-30T14:11:35;12.30;99.90
41557;DHT22;27720;51.992;5.890;2024-01-30T14:14:01;12.20;99.90
41557;DHT22;27720;51.992;5.890;2024-01-30T14:16:27;12.20;99.90
41557;DHT22;27720;51.992;5.890;2024-01-30T14:18:54;12.10;99.90
41557;DHT22;27720;51.992;5.890;2024-01-30T14:21:20;12.10;99.90
41557;DHT22;27720;51.992;5.890;2024-01-30T14:23:45;12.10;99.90
41557;DHT22;27720;51.992;5.890;2024-01-30T14:26:12;12.10;99.90
41557;DHT22;27720;51.992;5.890;2024-01-30T14:28:38;12.10;99.90
41557;DHT22;27720;51.992;5.890;2024-01-30T14:31:04;12.10;99.90
41557;DHT22;27720;51.992;5.890;2024-01-30T14:33:30;12.20;99.90
41557;DHT22;27720;51.992;5.890;2024-01-30T14:35:56;12.10;99.90
41557;DHT22;27720;51.992;5.890;2024-01-30T14:38:21;12.10;99.90
41557;DHT22;27720;51.992;5.890;2024-01-30T14:40:47;12.10;99.90
41557;DHT22;27720;51.992;5.890;2024-01-30T14:43:13;12.10;99.90
41557;DHT22;27720;51.992;5.890;2024-01-30T14:45:39;12.10;99.90
41557;DHT22;27720;51.992;5.890;2024-01-30T14:48:08;12.10;99.90
41557;DHT22;27720;51.992;5.890;2024-01-30T14:50:34;12.10;99.90
41557;DHT22;27720;51.992;5.890;2024-01-30T14:53:00;12.10;99.90
41557;DHT22;27720;51.992;5.890;2024-01-30T14:55:25;12.10;99.90
41557;DHT22;27720;51.992;5.890;2024-01-30T14:57:51;12.00;99.90
41557;DHT22;27720;51.992;5.890;2024-01-30T15:00:17;12.00;99.90
41557;DHT22;27720;51.992;5.890;2024-01-30T15:02:43;12.00;99.90
41557;DHT22;27720;51.992;5.890;2024-01-30T15:05:10;12.00;99.90
41557;DHT22;27720;51.992;5.890;2024-01-30T15:07:37;12.00;99.90
41557;DHT22;27720;51.992;5.890;2024-01-30T15:10:03;11.90;99.90
41557;DHT22;27720;51.992;5.890;2024-01-30T15:12:29;11.90;99.90
41557;DHT22;27720;51.992;5.890;2024-01-30T15:14:57;11.80;99.90
41557;DHT22;27720;51.992;5.890;2024-01-30T15:17:22;11.80;99.90
41557;DHT22;27720;51.992;5.890;2024-01-30T15:19:48;11.80;99.90
41557;DHT22;27720;51.992;5.890;2024-01-30T15:22:14;11.80;99.90
41557;DHT22;27720;51.992;5.890;2024-01-30T15:24:39;11.80;99.90
41557;DHT22;27720;51.992;5.890;2024-01-30T15:27:05;11.80;99.90
41557;DHT22;27720;51.992;5.890;2024-01-30T15:29:31;11.70;99.90
41557;DHT22;27720;51.992;5.890;2024-01-30T15:31:57;11.70;99.90
41557;DHT22;27720;51.992;5.890;2024-01-30T15:34:23;11.70;99.90
41557;DHT22;27720;51.992;5.890;2024-01-30T15:36:48;11.70;99.90
41557;DHT22;27720;51.992;5.890;2024-01-30T15:39:14;11.70;99.90
41557;DHT22;27720;51.992;5.890;2024-01-30T15:41:42;11.70;99.90
41557;DHT22;27720;51.992;5.890;2024-01-30T15:44:08;11.70;99.90
41557;DHT22;27720;51.992;5.890;2024-01-30T15:46:34;11.70;99.90
41557;DHT22;27720;51.992;5.890;2024-01-30T15:48:59;11.60;99.90
41557;DHT22;27720;51.992;5.890;2024-01-30T15:51:26;11.60;99.90
41557;DHT22;27720;51.992;5.890;2024-01-30T15:53:52;11.60;99.90
41557;DHT22;27720;51.992;5.890;2024-01-30T15:56:19;11.50;99.90
41557;DHT22;27720;51.992;5.890;2024-01-30T15:58:44;11.50;99.90
41557;DHT22;27720;51.992;5.890;2024-01-30T16:01:18;11.40;99.90
41557;DHT22;27720;51.992;5.890;2024-01-30T16:03:44;11.30;99.90
41557;DHT22;27720;51.992;5.890;2024-01-30T16:06:13;11.30;99.90
41557;DHT22;27720;51.992;5.890;2024-01-30T16:08:39;11.20;99.90
41557;DHT22;27720;51.992;5.890;2024-01-30T16:11:07;11.20;99.90
41557;DHT22;27720;51.992;5.890;2024-01-30T16:13:34;11.10;99.90
41557;DHT22;27720;51.992;5.890;2024-01-30T16:16:04;11.10;99.90
41557;DHT22;27720;51.992;5.890;2024-01-30T16:18:31;11.00;99.90
41557;DHT22;27720;51.992;5.890;2024-01-30T16:20:58;11.00;99.90
41557;DHT22;27720;51.992;5.890;2024-01-30T16:23:24;11.10;99.90
41557;DHT22;27720;51.992;5.890;2024-01-30T16:26:01;11.10;99.90
41557;DHT22;27720;51.992;5.890;2024-01-30T16:29:32;11.10;99.90
41557;DHT22;27720;51.992;5.890;2024-01-30T16:37:20;11.10;99.90
41557;DHT22;27720;51.992;5.890;2024-01-30T16:47:28;11.00;99.90
41557;DHT22;27720;51.992;5.890;2024-01-30T16:59:08;10.80;99.90
41557;DHT22;27720;51.992;5.890;2024-01-30T17:01:41;10.80;99.90
41557;DHT22;27720;51.992;5.890;2024-01-30T17:04:15;10.80;99.90
41557;DHT22;27720;51.992;5.890;2024-01-30T17:06:42;10.80;99.90
41557;DHT22;27720;51.992;5.890;2024-01-30T17:09:07;10.70;99.90
41557;DHT22;27720;51.992;5.890;2024-01-30T17:11:33;10.80;99.90
41557;DHT22;27720;51.992;5.890;2024-01-30T17:13:58;10.70;99.90
41557;DHT22;27720;51.992;5.890;2024-01-30T17:16:24;10.80;99.90
41557;DHT22;27720;51.992;5.890;2024-01-30T17:18:50;10.70;99.90
41557;DHT22;27720;51.992;5.890;2024-01-30T17:21:17;10.80;99.90
41557;DHT22;27720;51.992;5.890;2024-01-30T17:23:43;10.80;99.90
41557;DHT22;27720;51.992;5.890;2024-01-30T17:26:10;10.80;99.90
41557;DHT22;27720;51.992;5.890;2024-01-30T17:28:35;10.80;99.90
41557;DHT22;27720;51.992;5.890;2024-01-30T17:31:01;10.80;99.90
41557;DHT22;27720;51.992;5.890;2024-01-30T17:33:28;10.80;99.90
41557;DHT22;27720;51.992;5.890;2024-01-30T17:35:53;10.80;99.90
41557;DHT22;27720;51.992;5.890;2024-01-30T17:38:19;10.80;99.90
41557;DHT22;27720;51.992;5.890;2024-01-30T17:40:45;10.80;99.90
41557;DHT22;27720;51.992;5.890;2024-01-30T17:43:10;10.80;99.90
41557;DHT22;27720;51.992;5.890;2024-01-30T17:45:52;10.80;99.90
41557;DHT22;27720;51.992;5.890;2024-01-30T17:49:09;10.80;99.90
41557;DHT22;27720;51.992;5.890;2024-01-30T17:52:33;10.80;99.90
41557;DHT22;27720;51.992;5.890;2024-01-30T17:58:33;10.80;99.90
41557;DHT22;27720;51.992;5.890;2024-01-30T19:45:34;10.30;99.90
41557;DHT22;27720;51.992;5.890;2024-01-30T19:48:00;10.30;99.90
41557;DHT22;27720;51.992;5.890;2024-01-30T19:50:25;10.20;99.90
41557;DHT22;27720;51.992;5.890;2024-01-30T19:52:51;10.20;99.90
41557;DHT22;27720;51.992;5.890;2024-01-30T19:55:17;10.20;99.90
41557;DHT22;27720;51.992;5.890;2024-01-30T19:57:48;10.20;99.90
41557;DHT22;27720;51.992;5.890;2024-01-30T20:00:14;10.30;99.90
41557;DHT22;27720;51.992;5.890;2024-01-30T20:02:40;10.30;99.90
41557;DHT22;27720;51.992;5.890;2024-01-30T20:05:06;10.40;99.90
41557;DHT22;27720;51.992;5.890;2024-01-30T20:07:32;10.30;99.90
41557;DHT22;27720;51.992;5.890;2024-01-30T20:09:58;10.40;99.90
41557;DHT22;27720;51.992;5.890;2024-01-30T20:12:23;10.40;99.90
41557;DHT22;27720;51.992;5.890;2024-01-30T20:14:52;10.40;99.90
41557;DHT22;27720;51.992;5.890;2024-01-30T20:17:18;10.40;99.90
41557;DHT22;27720;51.992;5.890;2024-01-30T20:19:44;10.40;99.90
41557;DHT22;27720;51.992;5.890;2024-01-30T20:22:14;10.40;99.90
41557;DHT22;27720;51.992;5.890;2024-01-30T20:24:41;10.30;99.90
41557;DHT22;27720;51.992;5.890;2024-01-30T20:27:08;10.30;99.90
41557;DHT22;27720;51.992;5.890;2024-01-30T20:29:34;10.30;99.90
41557;DHT22;27720;51.992;5.890;2024-01-30T20:32:02;10.30;99.90
41557;DHT22;27720;51.992;5.890;2024-01-30T20:34:31;10.30;99.90
41557;DHT22;27720;51.992;5.890;2024-01-30T20:36:57;10.30;99.90
41557;DHT22;27720;51.992;5.890;2024-01-30T20:39:23;10.30;99.90
41557;DHT22;27720;51.992;5.890;2024-01-30T20:41:51;10.30;99.90
41557;DHT22;27720;51.992;5.890;2024-01-30T20:44:18;10.30;99.90
41557;DHT22;27720;51.992;5.890;2024-01-30T20:46:45;10.20;99.90
41557;DHT22;27720;51.992;5.890;2024-01-30T20:49:11;10.30;99.90
41557;DHT22;27720;51.992;5.890;2024-01-30T20:51:37;10.30;99.90
41557;DHT22;27720;51.992;5.890;2024-01-30T20:54:03;10.30;99.90
41557;DHT22;27720;51.992;5.890;2024-01-30T20:56:28;10.30;99.90
41557;DHT22;27720;51.992;5.890;2024-01-30T20:58:55;10.30;99.90
41557;DHT22;27720;51.992;5.890;2024-01-30T21:01:24;10.30;99.90
41557;DHT22;27720;51.992;5.890;2024-01-30T21:03:50;10.30;99.90
41557;DHT22;27720;51.992;5.890;2024-01-30T21:06:16;10.30;99.90
41557;DHT22;27720;51.992;5.890;2024-01-30T21:08:42;10.30;99.90
41557;DHT22;27720;51.992;5.890;2024-01-30T21:11:08;10.30;99.90
41557;DHT22;27720;51.992;5.890;2024-01-30T21:13:34;10.30;99.90
41557;DHT22;27720;51.992;5.890;2024-01-30T21:16:00;10.30;99.90
41557;DHT22;27720;51.992;5.890;2024-01-30T21:18:25;10.30;99.90
41557;DHT22;27720;51.992;5.890;2024-01-30T21:20:51;10.30;99.90
41557;DHT22;27720;51.992;5.890;2024-01-30T21:23:19;10.20;99.90
41557;DHT22;27720;51.992;5.890;2024-01-30T21:25:47;10.20;99.90
41557;DHT22;27720;51.992;5.890;2024-01-30T21:28:13;10.20;99.90
41557;DHT22;27720;51.992;5.890;2024-01-30T21:30:39;10.20;99.90
41557;DHT22;27720;51.992;5.890;2024-01-30T21:33:05;10.20;99.90
41557;DHT22;27720;51.992;5.890;2024-01-30T21:35:31;10.10;99.90
41557;DHT22;27720;51.992;5.890;2024-01-30T21:37:58;10.10;99.90
41557;DHT22;27720;51.992;5.890;2024-01-30T21:40:27;10.10;99.90
